createdAt,value
2023-03-24T00:01:56.373Z,11.80
2023-03-24T00:04:25.216Z,11.80
2023-03-24T00:06:54.173Z,11.80
2023-03-24T00:09:21.235Z,11.90
2023-03-24T00:11:48.112Z,11.90
2023-03-24T00:14:15.042Z,11.90
2023-03-24T00:16:43.076Z,11.90
2023-03-24T00:19:11.586Z,12.00
2023-03-24T00:21:38.690Z,12.00
2023-03-24T00:24:08.223Z,12.00
2023-03-24T00:26:40.075Z,12.00
2023-03-24T00:29:13.905Z,12.00
2023-03-24T00:31:41.508Z,12.00
2023-03-24T00:34:10.415Z,12.00
2023-03-24T00:36:37.651Z,12.10
2023-03-24T00:39:06.507Z,12.10
2023-03-24T00:41:33.947Z,12.10
2023-03-24T00:44:03.978Z,12.10
2023-03-24T00:46:31.097Z,12.10
2023-03-24T00:49:06.108Z,12.10
2023-03-24T00:51:39.215Z,12.10
2023-03-24T00:54:08.166Z,12.10
2023-03-24T00:56:38.045Z,12.10
2023-03-24T00:59:05.382Z,12.10
2023-03-24T01:01:35.693Z,12.10
2023-03-24T01:04:03.556Z,12.20
2023-03-24T01:06:30.617Z,12.20
2023-03-24T01:08:57.758Z,12.30
2023-03-24T01:11:28.536Z,12.30
2023-03-24T01:13:55.523Z,12.30
2023-03-24T01:16:26.023Z,12.30
2023-03-24T01:18:53.100Z,12.30
2023-03-24T01:21:20.029Z,12.30
2023-03-24T01:23:47.776Z,12.30
2023-03-24T01:26:14.815Z,12.40
2023-03-24T01:28:43.846Z,12.40
2023-03-24T01:31:11.797Z,12.40
2023-03-24T01:33:38.970Z,12.40
2023-03-24T01:36:07.072Z,12.40
2023-03-24T01:38:34.241Z,12.40
2023-03-24T01:41:01.219Z,12.40
2023-03-24T01:43:33.348Z,12.30
2023-03-24T01:46:14.911Z,12.30
2023-03-24T01:48:44.578Z,12.40
2023-03-24T01:51:19.680Z,12.40
2023-03-24T01:54:03.487Z,12.40
2023-03-24T01:56:34.464Z,12.40
2023-03-24T01:59:05.613Z,12.40
2023-03-24T02:01:33.065Z,12.40
2023-03-24T02:04:05.867Z,12.40
2023-03-24T02:06:35.493Z,12.40
2023-03-24T02:09:03.959Z,12.40
2023-03-24T02:11:34.181Z,12.40
2023-03-24T02:14:01.162Z,12.40
2023-03-24T02:16:42.615Z,12.50
2023-03-24T02:19:28.283Z,12.50
2023-03-24T02:22:14.329Z,12.50
2023-03-24T02:24:47.111Z,12.50
2023-03-24T02:27:30.140Z,12.50
2023-03-24T02:30:20.657Z,12.60
2023-03-24T02:33:25.424Z,12.60
2023-03-24T02:36:01.542Z,12.60
2023-03-24T02:38:46.822Z,12.70
2023-03-24T02:41:20.851Z,12.70
2023-03-24T02:44:19.399Z,12.70
2023-03-24T02:46:52.415Z,12.70
2023-03-24T02:49:35.137Z,12.80
2023-03-24T02:52:16.966Z,12.90
2023-03-24T02:55:12.357Z,13.00
2023-03-24T02:58:02.598Z,13.00
2023-03-24T03:00:39.214Z,13.10
2023-03-24T03:03:28.174Z,13.10
2023-03-24T03:05:58.853Z,13.20
2023-03-24T03:08:30.142Z,13.20
2023-03-24T03:10:59.448Z,13.30
2023-03-24T03:13:34.243Z,13.30
2023-03-24T03:16:09.507Z,13.30
2023-03-24T03:18:43.523Z,13.30
2023-03-24T03:21:14.902Z,13.30
2023-03-24T03:23:51.149Z,13.30
2023-03-24T03:26:22.630Z,13.30
2023-03-24T03:28:58.168Z,13.30
2023-03-24T03:31:31.538Z,13.30
2023-03-24T03:34:09.832Z,13.20
2023-03-24T03:36:55.273Z,13.30
2023-03-24T03:39:28.845Z,13.20
2023-03-24T03:41:56.955Z,13.20
2023-03-24T03:44:24.876Z,13.20
2023-03-24T03:46:52.206Z,13.10
2023-03-24T03:49:19.421Z,12.90
2023-03-24T03:51:47.096Z,12.80
2023-03-24T03:54:16.317Z,12.70
2023-03-24T03:56:43.436Z,12.60
2023-03-24T03:59:23.563Z,12.50
2023-03-24T04:01:50.536Z,12.50
2023-03-24T04:05:07.855Z,12.50
2023-03-24T04:08:08.686Z,12.50
2023-03-24T04:10:38.331Z,12.40
2023-03-24T04:13:22.745Z,12.40
2023-03-24T04:15:58.291Z,12.30
2023-03-24T04:18:48.196Z,12.40
2023-03-24T04:21:39.233Z,12.40
2023-03-24T04:24:11.846Z,12.40
2023-03-24T04:26:54.861Z,12.40
2023-03-24T04:29:53.207Z,12.40
2023-03-24T04:32:43.278Z,12.30
2023-03-24T04:35:34.037Z,12.30
2023-03-24T04:38:05.951Z,12.20
2023-03-24T04:40:36.849Z,12.10
2023-03-24T04:43:07.559Z,11.90
2023-03-24T04:45:36.405Z,11.80
2023-03-24T04:48:05.810Z,11.70
2023-03-24T04:50:38.344Z,11.50
2023-03-24T04:53:07.433Z,11.40
2023-03-24T04:55:49.304Z,11.20
2023-03-24T04:58:17.313Z,11.10
2023-03-24T05:00:45.174Z,11.10
2023-03-24T05:03:14.360Z,11.00
2023-03-24T05:05:42.466Z,10.90
2023-03-24T05:08:10.848Z,10.90
2023-03-24T05:10:38.674Z,10.90
2023-03-24T05:13:07.159Z,10.90
2023-03-24T05:15:34.369Z,10.90
2023-03-24T05:18:01.457Z,10.90
2023-03-24T05:20:28.866Z,10.90
2023-03-24T05:22:56.257Z,10.90
2023-03-24T05:25:23.219Z,11.00
2023-03-24T05:27:50.144Z,11.00
2023-03-24T05:30:17.617Z,11.10
2023-03-24T05:32:46.758Z,11.10
2023-03-24T05:35:14.439Z,11.10
2023-03-24T05:37:41.454Z,11.00
2023-03-24T05:40:09.296Z,11.10
2023-03-24T05:42:36.179Z,11.00
2023-03-24T05:45:03.559Z,11.00
2023-03-24T05:47:30.525Z,10.90
2023-03-24T05:49:57.356Z,10.90
2023-03-24T05:52:24.421Z,10.90
2023-03-24T05:54:52.397Z,10.90
2023-03-24T05:57:20.627Z,11.00
2023-03-24T05:59:47.793Z,11.00
2023-03-24T06:02:14.988Z,11.00
2023-03-24T06:04:46.788Z,11.00
2023-03-24T06:07:13.750Z,10.90
2023-03-24T06:09:42.670Z,10.90
2023-03-24T06:12:10.432Z,10.70
2023-03-24T06:14:37.441Z,10.70
2023-03-24T06:17:05.164Z,10.70
2023-03-24T06:19:34.011Z,10.80
2023-03-24T06:22:03.011Z,11.10
2023-03-24T06:24:30.755Z,11.50
2023-03-24T06:27:02.462Z,12.00
2023-03-24T06:29:31.262Z,12.30
2023-03-24T06:31:58.264Z,12.60
2023-03-24T06:34:29.476Z,12.60
2023-03-24T06:36:56.634Z,12.90
2023-03-24T06:39:24.130Z,13.20
2023-03-24T06:41:51.135Z,13.70
2023-03-24T06:44:18.302Z,14.20
2023-03-24T06:46:46.269Z,14.60
2023-03-24T06:49:13.104Z,15.10
2023-03-24T06:51:39.961Z,15.70
2023-03-24T06:54:06.901Z,16.30
2023-03-24T06:56:34.968Z,16.50
2023-03-24T06:59:01.860Z,16.90
2023-03-24T07:01:29.938Z,17.10
2023-03-24T07:03:56.968Z,17.30
2023-03-24T07:06:23.924Z,17.70
2023-03-24T07:11:16.589Z,18.00
2023-03-24T07:13:43.519Z,18.00
2023-03-24T07:16:10.426Z,17.60
2023-03-24T07:18:37.286Z,17.50
2023-03-24T07:21:04.296Z,17.50
2023-03-24T07:23:32.682Z,17.40
2023-03-24T07:25:59.886Z,17.30
2023-03-24T07:28:26.867Z,17.60
2023-03-24T07:30:54.945Z,17.90
2023-03-24T07:33:24.480Z,18.20
2023-03-24T07:35:56.335Z,18.30
2023-03-24T07:38:24.141Z,18.40
2023-03-24T07:40:51.126Z,18.50
2023-03-24T07:43:18.187Z,18.40
2023-03-24T07:45:48.217Z,18.30
2023-03-24T07:48:15.584Z,18.40
2023-03-24T07:50:42.606Z,18.20
2023-03-24T07:53:12.769Z,18.50
2023-03-24T07:55:40.103Z,18.30
2023-03-24T07:58:07.111Z,18.10
2023-03-24T08:00:34.061Z,17.30
2023-03-24T08:03:01.378Z,16.90
2023-03-24T08:05:29.904Z,16.40
2023-03-24T08:07:58.295Z,16.70
2023-03-24T08:10:27.961Z,16.90
2023-03-24T08:12:55.679Z,16.90
2023-03-24T08:15:23.772Z,16.90
2023-03-24T08:17:51.906Z,17.00
2023-03-24T08:20:21.436Z,16.90
2023-03-24T08:22:50.056Z,16.90
2023-03-24T08:25:19.261Z,16.80
2023-03-24T08:27:47.423Z,16.80
2023-03-24T08:30:23.286Z,16.50
2023-03-24T08:32:56.391Z,16.50
2023-03-24T08:35:27.629Z,16.50
2023-03-24T08:37:54.620Z,16.90
2023-03-24T08:40:24.461Z,17.20
2023-03-24T08:42:54.508Z,17.10
2023-03-24T08:45:24.096Z,17.30
2023-03-24T08:47:52.670Z,17.50
2023-03-24T08:50:21.803Z,17.70
2023-03-24T08:52:48.779Z,17.80
2023-03-24T08:55:17.543Z,18.00
2023-03-24T08:57:44.868Z,17.90
2023-03-24T09:00:15.581Z,17.60
2023-03-24T09:02:45.135Z,17.20
2023-03-24T09:05:12.733Z,16.90
2023-03-24T09:07:39.755Z,16.30
2023-03-24T09:10:08.109Z,16.00
2023-03-24T09:12:36.332Z,16.10
2023-03-24T09:15:04.969Z,16.00
2023-03-24T09:17:32.746Z,15.70
2023-03-24T09:20:01.903Z,15.60
2023-03-24T09:22:29.136Z,15.40
2023-03-24T09:24:55.964Z,15.40
2023-03-24T09:27:23.511Z,15.60
2023-03-24T09:29:50.452Z,15.60
2023-03-24T09:32:17.374Z,15.50
2023-03-24T09:34:44.296Z,15.30
2023-03-24T09:37:11.341Z,15.00
2023-03-24T09:39:38.242Z,14.80
2023-03-24T09:42:25.041Z,14.60
2023-03-24T09:45:00.018Z,14.60
2023-03-24T09:47:35.240Z,14.70
2023-03-24T09:50:17.518Z,14.90
2023-03-24T09:52:47.265Z,15.10
2023-03-24T09:55:19.605Z,15.30
2023-03-24T09:57:49.657Z,15.20
2023-03-24T10:00:24.161Z,15.00
2023-03-24T10:02:54.225Z,14.70
2023-03-24T10:05:27.119Z,14.80
2023-03-24T10:08:16.547Z,14.80
2023-03-24T10:10:56.437Z,15.00
2023-03-24T10:14:18.686Z,15.30
2023-03-24T10:17:04.730Z,15.50
2023-03-24T10:19:40.202Z,15.60
2023-03-24T10:22:37.837Z,15.50
2023-03-24T10:25:17.022Z,15.50
2023-03-24T10:27:51.582Z,15.40
2023-03-24T10:30:23.216Z,15.20
2023-03-24T10:32:50.229Z,15.20
2023-03-24T10:35:32.142Z,15.20
2023-03-24T10:38:01.407Z,15.30
2023-03-24T10:40:33.458Z,15.40
2023-03-24T10:43:07.418Z,15.40
2023-03-24T10:45:40.751Z,15.20
2023-03-24T10:48:09.639Z,15.20
2023-03-24T10:50:43.298Z,15.40
2023-03-24T10:53:20.897Z,15.40
2023-03-24T10:55:49.102Z,15.60
2023-03-24T10:58:41.872Z,15.70
2023-03-24T11:01:26.473Z,15.80
2023-03-24T11:04:05.163Z,15.80
2023-03-24T11:06:33.813Z,15.80
2023-03-24T11:09:10.931Z,16.00
2023-03-24T11:11:37.805Z,16.30
2023-03-24T11:14:18.645Z,16.20
2023-03-24T11:16:46.141Z,15.90
2023-03-24T11:19:24.217Z,15.90
2023-03-24T11:21:57.427Z,16.20
2023-03-24T11:24:24.881Z,16.20
2023-03-24T11:27:02.029Z,16.10
2023-03-24T11:29:32.883Z,15.80
2023-03-24T11:32:03.574Z,15.70
2023-03-24T11:34:34.322Z,15.60
2023-03-24T11:37:14.484Z,15.60
2023-03-24T11:39:41.647Z,15.70
2023-03-24T11:42:12.119Z,15.90
2023-03-24T11:44:39.168Z,15.90
2023-03-24T11:47:11.588Z,16.00
2023-03-24T11:49:44.989Z,16.20
2023-03-24T11:52:24.766Z,16.40
2023-03-24T11:54:51.805Z,16.40
2023-03-24T11:57:37.812Z,16.40
2023-03-24T12:00:20.515Z,16.60
2023-03-24T12:03:03.429Z,16.70
2023-03-24T12:05:30.671Z,16.60
2023-03-24T12:08:12.378Z,16.40
2023-03-24T12:10:49.953Z,16.10
2023-03-24T12:13:32.384Z,15.70
2023-03-24T12:16:06.077Z,15.60
2023-03-24T12:18:40.731Z,15.50
2023-03-24T12:21:31.551Z,15.60
2023-03-24T12:24:05.279Z,15.90
2023-03-24T12:26:33.672Z,16.10
2023-03-24T12:29:03.215Z,16.10
2023-03-24T12:31:52.146Z,16.10
2023-03-24T12:34:27.987Z,16.00
2023-03-24T12:37:03.121Z,15.60
2023-03-24T12:39:37.624Z,15.30
2023-03-24T12:42:13.697Z,14.90
2023-03-24T12:44:56.190Z,14.60
2023-03-24T12:47:57.670Z,14.40
2023-03-24T12:50:38.358Z,14.50
2023-03-24T12:53:33.355Z,14.50
2023-03-24T12:56:18.770Z,14.00
2023-03-24T12:58:54.332Z,13.60
2023-03-24T13:01:29.739Z,13.60
2023-03-24T13:04:08.766Z,13.60
2023-03-24T13:06:54.917Z,13.70
2023-03-24T13:09:50.089Z,13.90
2023-03-24T13:12:22.524Z,14.20
2023-03-24T13:14:59.842Z,14.40
2023-03-24T13:18:02.424Z,14.60
2023-03-24T13:20:36.211Z,14.60
2023-03-24T13:23:42.074Z,14.80
2023-03-24T13:26:14.958Z,14.80
2023-03-24T13:29:01.408Z,14.90
2023-03-24T13:31:40.108Z,14.90
2023-03-24T13:34:31.372Z,14.90
2023-03-24T13:37:06.653Z,14.50
2023-03-24T13:39:35.930Z,13.80
2023-03-24T13:42:03.918Z,13.40
2023-03-24T13:44:39.190Z,13.10
2023-03-24T13:47:13.297Z,12.70
2023-03-24T13:49:42.614Z,12.60
2023-03-24T13:52:40.224Z,12.60
2023-03-24T13:55:19.702Z,12.40
2023-03-24T13:57:57.086Z,12.30
2023-03-24T14:00:26.619Z,12.20
2023-03-24T14:02:55.549Z,12.20
2023-03-24T14:05:22.456Z,12.20
2023-03-24T14:07:51.604Z,12.40
2023-03-24T14:10:20.849Z,12.60
2023-03-24T14:12:59.427Z,12.90
2023-03-24T14:15:30.755Z,13.00
2023-03-24T14:18:14.192Z,13.10
2023-03-24T14:20:59.530Z,13.20
2023-03-24T14:23:52.601Z,13.30
2023-03-24T14:26:23.398Z,13.30
2023-03-24T14:28:52.483Z,13.50
2023-03-24T14:31:29.342Z,13.60
2023-03-24T14:34:02.503Z,13.50
2023-03-24T14:36:31.600Z,13.40
2023-03-24T14:39:11.516Z,13.40
2023-03-24T14:41:41.726Z,13.30
2023-03-24T14:44:08.950Z,13.30
2023-03-24T14:46:52.543Z,13.00
2023-03-24T14:49:30.367Z,12.60
2023-03-24T14:51:59.390Z,12.40
2023-03-24T14:54:46.247Z,12.30
2023-03-24T14:57:29.245Z,12.10
2023-03-24T15:00:01.865Z,12.00
2023-03-24T15:02:41.448Z,11.90
2023-03-24T15:05:31.932Z,11.90
2023-03-24T15:08:04.350Z,11.90
2023-03-24T15:11:10.129Z,12.00
2023-03-24T15:13:50.001Z,12.20
2023-03-24T15:16:26.423Z,12.40
2023-03-24T15:19:02.656Z,12.40
2023-03-24T15:21:34.063Z,12.30
2023-03-24T15:24:02.176Z,12.10
2023-03-24T15:26:31.682Z,12.10
2023-03-24T15:29:01.611Z,12.10
2023-03-24T15:31:30.528Z,12.10
2023-03-24T15:34:34.693Z,12.10
2023-03-24T15:37:03.800Z,11.80
2023-03-24T15:39:38.121Z,11.60
2023-03-24T15:42:14.559Z,11.60
2023-03-24T15:44:41.827Z,11.70
2023-03-24T15:47:23.849Z,11.70
2023-03-24T15:49:59.065Z,11.70
2023-03-24T15:52:29.552Z,11.80
2023-03-24T15:55:27.295Z,11.80
2023-03-24T15:57:57.812Z,11.80
2023-03-24T16:00:30.648Z,11.80
2023-03-24T16:03:02.200Z,11.90
2023-03-24T16:05:31.202Z,12.00
2023-03-24T16:08:25.820Z,12.00
2023-03-24T16:11:01.326Z,12.00
2023-03-24T16:13:28.505Z,11.90
2023-03-24T16:16:03.821Z,11.90
2023-03-24T16:18:39.156Z,11.80
2023-03-24T16:21:24.497Z,11.80
2023-03-24T16:23:53.108Z,11.80
2023-03-24T16:26:23.928Z,11.80
2023-03-24T16:28:52.741Z,11.70
2023-03-24T16:31:30.872Z,11.70
2023-03-24T16:33:58.538Z,11.70
2023-03-24T16:36:29.300Z,11.70
2023-03-24T16:38:58.530Z,11.70
2023-03-24T16:41:25.689Z,11.70
2023-03-24T16:43:53.375Z,11.70
2023-03-24T16:46:32.174Z,11.70
2023-03-24T16:48:59.583Z,11.70
2023-03-24T16:51:27.384Z,11.70
2023-03-24T16:53:54.273Z,11.70
2023-03-24T16:56:22.614Z,11.70
2023-03-24T16:58:52.371Z,11.70
2023-03-24T17:01:27.839Z,11.80
2023-03-24T17:03:56.551Z,11.80
2023-03-24T17:06:24.752Z,11.80
2023-03-24T17:11:32.155Z,11.80
2023-03-24T17:14:04.883Z,11.70
2023-03-24T17:16:37.032Z,11.60
2023-03-24T17:19:05.786Z,11.60
2023-03-24T17:21:37.359Z,11.60
2023-03-24T17:24:06.904Z,11.50
2023-03-24T17:26:33.745Z,11.50
2023-03-24T17:29:00.701Z,11.50
2023-03-24T17:31:27.766Z,11.40
2023-03-24T17:33:54.730Z,11.40
2023-03-24T17:36:21.571Z,11.30
2023-03-24T17:38:48.833Z,11.30
2023-03-24T17:41:15.978Z,11.30
2023-03-24T17:43:44.821Z,11.30
2023-03-24T17:46:11.953Z,11.30
2023-03-24T17:48:39.011Z,11.30
2023-03-24T17:51:06.274Z,11.30
2023-03-24T17:53:33.832Z,11.20
2023-03-24T17:56:05.866Z,11.20
2023-03-24T17:58:35.040Z,11.10
2023-03-24T18:01:08.580Z,11.10
2023-03-24T18:03:38.213Z,11.10
2023-03-24T18:06:11.268Z,11.10
2023-03-24T18:08:39.124Z,11.10
2023-03-24T18:11:08.613Z,11.10
2023-03-24T18:13:35.591Z,11.10
2023-03-24T18:16:13.327Z,11.10
2023-03-24T18:18:47.244Z,11.10
2023-03-24T18:21:14.209Z,11.10
2023-03-24T18:23:41.189Z,11.10
2023-03-24T18:26:08.993Z,11.10
2023-03-24T18:28:38.058Z,11.10
2023-03-24T18:31:15.945Z,11.20
2023-03-24T18:33:46.092Z,11.30
2023-03-24T18:36:16.681Z,11.30
2023-03-24T18:38:43.838Z,11.40
2023-03-24T18:41:13.042Z,11.50
2023-03-24T18:43:41.230Z,11.50
2023-03-24T18:46:10.042Z,11.50
2023-03-24T18:48:38.189Z,11.50
2023-03-24T18:51:06.310Z,11.60
2023-03-24T18:53:34.693Z,11.60
2023-03-24T18:56:02.595Z,11.60
2023-03-24T18:58:29.721Z,11.60
2023-03-24T19:00:58.418Z,11.60
2023-03-24T19:03:26.382Z,11.60
2023-03-24T19:05:54.382Z,11.50
2023-03-24T19:08:22.113Z,11.40
2023-03-24T19:10:49.166Z,11.20
2023-03-24T19:13:17.214Z,11.00
2023-03-24T19:15:48.253Z,10.80
2023-03-24T19:18:15.710Z,10.60
2023-03-24T19:20:42.927Z,10.50
2023-03-24T19:23:09.814Z,10.30
2023-03-24T19:25:36.770Z,10.20
2023-03-24T19:28:03.649Z,10.20
2023-03-24T19:30:30.576Z,10.10
2023-03-24T19:32:57.414Z,10.10
2023-03-24T19:35:24.592Z,10.00
2023-03-24T19:37:51.626Z,9.90
2023-03-24T19:40:18.672Z,9.90
2023-03-24T19:42:46.749Z,9.90
2023-03-24T19:45:16.690Z,9.90
2023-03-24T19:47:45.968Z,9.90
2023-03-24T19:50:14.892Z,9.80
2023-03-24T19:52:46.183Z,9.80
2023-03-24T19:55:14.036Z,9.70
2023-03-24T19:57:41.139Z,9.60
2023-03-24T20:00:10.295Z,9.60
2023-03-24T20:02:37.901Z,9.60
2023-03-24T20:05:05.567Z,9.60
2023-03-24T20:07:32.440Z,9.60
2023-03-24T20:09:59.980Z,9.60
2023-03-24T20:12:27.881Z,9.60
2023-03-24T20:14:55.153Z,9.60
2023-03-24T20:17:24.997Z,9.50
2023-03-24T20:19:52.063Z,9.50
2023-03-24T20:22:18.910Z,9.50
2023-03-24T20:24:47.883Z,9.50
2023-03-24T20:27:16.159Z,9.50
2023-03-24T20:29:43.809Z,9.50
2023-03-24T20:32:10.818Z,9.60
2023-03-24T20:34:39.005Z,9.60
2023-03-24T20:37:06.532Z,9.60
2023-03-24T20:39:33.901Z,9.50
2023-03-24T20:42:01.171Z,9.50
2023-03-24T20:44:28.219Z,9.60
2023-03-24T20:46:57.302Z,9.60
2023-03-24T20:49:25.998Z,9.50
2023-03-24T20:51:53.486Z,9.60
2023-03-24T20:54:21.453Z,9.50
2023-03-24T20:56:49.982Z,9.50
2023-03-24T20:59:17.335Z,9.50
2023-03-24T21:01:44.320Z,9.50
2023-03-24T21:04:11.212Z,9.50
2023-03-24T21:06:38.341Z,9.40
2023-03-24T21:09:05.810Z,9.50
2023-03-24T21:11:33.378Z,9.40
2023-03-24T21:14:01.245Z,9.40
2023-03-24T21:16:28.740Z,9.40
2023-03-24T21:18:56.211Z,9.50
2023-03-24T21:21:23.188Z,9.50
2023-03-24T21:23:52.838Z,9.50
2023-03-24T21:26:19.850Z,9.40
2023-03-24T21:28:46.850Z,9.40
2023-03-24T21:31:25.899Z,9.50
2023-03-24T21:33:53.994Z,9.50
2023-03-24T21:36:21.539Z,9.60
2023-03-24T21:38:49.909Z,9.60
2023-03-24T21:41:18.157Z,9.70
2023-03-24T21:43:51.492Z,9.70
2023-03-24T21:46:22.118Z,9.80
2023-03-24T21:48:55.605Z,9.90
2023-03-24T21:51:26.038Z,9.90
2023-03-24T21:53:59.504Z,10.00
2023-03-24T21:56:26.526Z,10.00
2023-03-24T21:58:54.940Z,10.10
2023-03-24T22:01:22.579Z,10.10
2023-03-24T22:03:51.005Z,10.10
2023-03-24T22:06:18.050Z,10.10
2023-03-24T22:11:19.740Z,10.00
2023-03-24T22:13:46.978Z,9.90
2023-03-24T22:16:14.606Z,9.70
2023-03-24T22:18:41.874Z,9.60
2023-03-24T22:21:10.641Z,9.50
2023-03-24T22:23:40.094Z,9.40
2023-03-24T22:26:10.033Z,9.30
2023-03-24T22:28:37.558Z,9.30
2023-03-24T22:31:10.430Z,9.20
2023-03-24T22:33:37.968Z,9.30
2023-03-24T22:36:07.811Z,9.20
2023-03-24T22:38:35.307Z,9.30
2023-03-24T22:41:05.915Z,9.30
2023-03-24T22:43:35.381Z,9.20
2023-03-24T22:46:02.972Z,9.20
2023-03-24T22:48:30.818Z,9.20
2023-03-24T22:50:57.672Z,9.20
2023-03-24T22:53:24.536Z,9.20
2023-03-24T22:55:52.158Z,9.20
2023-03-24T22:58:19.420Z,9.10
2023-03-24T23:00:49.801Z,9.10
2023-03-24T23:03:17.039Z,9.20
2023-03-24T23:05:47.478Z,9.20
2023-03-24T23:08:16.011Z,9.20
2023-03-24T23:10:44.943Z,9.30
2023-03-24T23:13:12.712Z,9.30
2023-03-24T23:15:47.580Z,9.30
2023-03-24T23:18:14.822Z,9.30
2023-03-24T23:20:42.907Z,9.20
2023-03-24T23:23:10.055Z,9.20
2023-03-24T23:25:42.643Z,9.20
2023-03-24T23:28:13.577Z,9.30
2023-03-24T23:30:41.499Z,9.20
2023-03-24T23:33:08.985Z,9.10
2023-03-24T23:35:38.798Z,9.10
2023-03-24T23:38:06.890Z,9.10
2023-03-24T23:40:33.820Z,9.10
2023-03-24T23:43:02.006Z,9.20
2023-03-24T23:45:28.908Z,9.20
2023-03-24T23:47:57.013Z,9.20
2023-03-24T23:50:23.889Z,9.30
2023-03-24T23:52:50.834Z,9.30
2023-03-24T23:55:18.469Z,9.40
2023-03-24T23:57:46.825Z,9.50
